createdAt,value
2019-05-18T00:00:55.910Z,24.37
2019-05-18T00:02:59.559Z,23.15
2019-05-18T00:05:05.473Z,24.43
2019-05-18T00:07:09.365Z,25.35
2019-05-18T00:09:13.281Z,23.90
2019-05-18T00:11:17.173Z,31.07
2019-05-18T00:13:20.648Z,36.30
2019-05-18T00:15:24.184Z,32.73
2019-05-18T00:17:27.713Z,34.15
2019-05-18T00:19:31.185Z,32.83
2019-05-18T00:21:34.653Z,34.60
2019-05-18T00:23:38.124Z,34.27
2019-05-18T00:25:41.597Z,33.20
2019-05-18T00:27:45.341Z,37.23
2019-05-18T00:29:48.887Z,37.05
2019-05-18T00:31:52.460Z,37.55
2019-05-18T00:33:56.015Z,35.40
2019-05-18T00:35:59.830Z,36.42
2019-05-18T00:38:03.299Z,35.85
2019-05-18T00:40:10.312Z,33.00
2019-05-18T00:42:13.927Z,31.77
2019-05-18T00:44:17.472Z,32.35
2019-05-18T00:46:20.945Z,36.10
2019-05-18T00:48:24.487Z,29.12
2019-05-18T00:50:28.025Z,27.98
2019-05-18T00:52:31.813Z,29.42
2019-05-18T00:54:36.385Z,32.58
2019-05-18T00:56:40.080Z,32.00
2019-05-18T00:58:43.619Z,34.35
2019-05-18T01:00:47.169Z,34.60
2019-05-18T01:02:50.714Z,39.58
2019-05-18T01:04:54.258Z,37.80
2019-05-18T01:06:58.198Z,35.33
2019-05-18T01:09:02.181Z,35.25
2019-05-18T01:11:05.843Z,29.70
2019-05-18T01:13:09.312Z,27.93
2019-05-18T01:15:13.318Z,29.02
2019-05-18T01:17:17.337Z,28.95
2019-05-18T01:19:21.160Z,29.63
2019-05-18T01:21:25.121Z,30.00
2019-05-18T01:23:28.777Z,30.62
2019-05-18T01:25:32.249Z,31.65
2019-05-18T01:27:35.807Z,30.95
2019-05-18T01:29:39.334Z,45.55
2019-05-18T01:31:43.394Z,48.05
2019-05-18T01:33:47.067Z,41.00
2019-05-18T01:35:50.993Z,39.65
2019-05-18T01:37:54.570Z,43.38
2019-05-18T01:39:58.166Z,42.27
2019-05-18T01:42:01.822Z,44.73
2019-05-18T01:44:05.425Z,47.60
2019-05-18T01:46:09.341Z,38.95
2019-05-18T01:48:14.576Z,38.02
2019-05-18T01:50:18.581Z,38.05
2019-05-18T01:52:22.465Z,35.80
2019-05-18T01:54:26.981Z,33.48
2019-05-18T01:56:30.577Z,32.05
2019-05-18T01:58:34.125Z,28.87
2019-05-18T02:00:37.717Z,26.25
2019-05-18T02:02:41.369Z,25.45
2019-05-18T02:04:44.918Z,24.75
2019-05-18T02:06:48.878Z,25.95
2019-05-18T02:08:52.537Z,28.23
2019-05-18T02:10:56.081Z,26.73
2019-05-18T02:12:59.670Z,26.55
2019-05-18T02:15:04.267Z,26.57
2019-05-18T02:17:07.805Z,25.52
2019-05-18T02:19:11.352Z,27.02
2019-05-18T02:21:14.821Z,23.32
2019-05-18T02:23:18.290Z,26.70
2019-05-18T02:25:22.761Z,25.45
2019-05-18T02:27:26.414Z,26.90
2019-05-18T02:29:30.209Z,26.35
2019-05-18T02:31:33.923Z,26.40
2019-05-18T02:33:37.536Z,26.37
2019-05-18T02:35:42.014Z,27.75
2019-05-18T02:37:45.719Z,24.70
2019-05-18T02:39:50.865Z,25.62
2019-05-18T02:41:54.485Z,27.50
2019-05-18T02:43:58.444Z,25.85
2019-05-18T02:46:03.274Z,26.87
2019-05-18T02:48:06.955Z,25.00
2019-05-18T02:50:10.741Z,27.25
2019-05-18T02:52:14.220Z,24.23
2019-05-18T02:54:17.938Z,25.35
2019-05-18T02:56:21.513Z,27.13
2019-05-18T02:58:25.058Z,26.02
2019-05-18T03:00:28.690Z,26.35
2019-05-18T03:02:32.343Z,25.52
2019-05-18T03:04:36.026Z,27.27
2019-05-18T03:06:39.962Z,25.55
2019-05-18T03:08:43.872Z,30.95
2019-05-18T03:10:47.596Z,24.12
2019-05-18T03:12:51.545Z,24.35
2019-05-18T03:14:55.349Z,25.75
2019-05-18T03:16:58.975Z,27.20
2019-05-18T03:19:07.988Z,27.37
2019-05-18T03:21:08.114Z,27.05
2019-05-18T03:23:11.652Z,27.05
2019-05-18T03:25:15.543Z,26.65
2019-05-18T03:27:19.418Z,25.55
2019-05-18T03:29:22.890Z,27.25
2019-05-18T03:31:26.723Z,28.47
2019-05-18T03:33:30.859Z,32.23
2019-05-18T03:35:34.894Z,27.42
2019-05-18T03:37:38.851Z,28.92
2019-05-18T03:39:42.746Z,28.27
2019-05-18T03:41:46.357Z,28.00
2019-05-18T03:43:49.977Z,29.05
2019-05-18T03:45:54.656Z,34.08
2019-05-18T03:47:58.274Z,32.25
2019-05-18T03:50:01.937Z,33.45
2019-05-18T03:52:05.838Z,31.77
2019-05-18T03:54:09.306Z,33.95
2019-05-18T03:56:13.166Z,56.42
2019-05-18T03:58:16.728Z,56.02
2019-05-18T04:00:20.393Z,54.08
2019-05-18T04:02:23.946Z,46.98
2019-05-18T04:04:27.870Z,33.65
2019-05-18T04:06:31.767Z,36.08
2019-05-18T04:08:36.492Z,33.92
2019-05-18T04:10:40.043Z,34.05
2019-05-18T04:12:43.587Z,29.50
2019-05-18T04:14:47.133Z,32.78
2019-05-18T04:16:50.674Z,32.55
2019-05-18T04:18:54.582Z,30.10
2019-05-18T04:21:01.557Z,29.27
2019-05-18T04:23:05.098Z,32.83
2019-05-18T04:25:09.058Z,32.73
2019-05-18T04:27:12.713Z,32.28
2019-05-18T04:29:16.262Z,31.77
2019-05-18T04:31:19.810Z,29.77
2019-05-18T04:33:23.838Z,31.33
2019-05-18T04:35:27.382Z,31.48
2019-05-18T04:37:30.925Z,28.30
2019-05-18T04:39:34.672Z,31.50
2019-05-18T04:41:38.421Z,30.97
2019-05-18T04:43:41.961Z,25.65
2019-05-18T04:45:45.549Z,22.55
2019-05-18T04:47:49.118Z,23.87
2019-05-18T04:50:04.419Z,30.70
2019-05-18T04:51:58.286Z,25.55
2019-05-18T04:54:01.925Z,25.43
2019-05-18T04:56:05.889Z,22.58
2019-05-18T04:58:09.758Z,22.40
2019-05-18T05:00:13.935Z,21.23
2019-05-18T05:02:17.477Z,20.23
2019-05-18T05:04:21.023Z,18.85
2019-05-18T05:06:24.753Z,17.98
2019-05-18T05:08:28.296Z,17.52
2019-05-18T05:10:31.771Z,18.75
2019-05-18T05:12:35.365Z,17.12
2019-05-18T05:14:38.913Z,17.23
2019-05-18T05:16:42.489Z,16.97
2019-05-18T05:18:45.980Z,16.57
2019-05-18T05:20:49.516Z,14.93
2019-05-18T05:22:53.297Z,15.00
2019-05-18T05:24:57.203Z,15.40
2019-05-18T05:27:01.294Z,14.20
2019-05-18T05:29:05.924Z,14.43
2019-05-18T05:31:09.392Z,13.43
2019-05-18T05:33:13.717Z,13.70
2019-05-18T05:35:17.333Z,13.80
2019-05-18T05:37:21.225Z,13.85
2019-05-18T05:39:24.764Z,15.40
2019-05-18T05:41:28.309Z,13.90
2019-05-18T05:43:31.885Z,13.75
2019-05-18T05:45:35.473Z,12.80
2019-05-18T05:47:39.001Z,13.03
2019-05-18T05:49:42.934Z,13.18
2019-05-18T05:51:46.477Z,13.85
2019-05-18T05:53:50.805Z,13.22
2019-05-18T05:55:54.401Z,13.38
2019-05-18T05:57:57.865Z,13.85
2019-05-18T06:00:01.419Z,13.03
2019-05-18T06:02:05.318Z,14.10
2019-05-18T06:04:08.864Z,13.83
2019-05-18T06:06:12.440Z,13.55
2019-05-18T06:08:16.084Z,13.98
2019-05-18T06:10:19.622Z,13.55
2019-05-18T06:12:23.229Z,14.30
2019-05-18T06:14:27.034Z,14.10
2019-05-18T06:16:30.582Z,14.30
2019-05-18T06:18:34.151Z,15.63
2019-05-18T06:20:50.503Z,14.68
2019-05-18T06:22:43.854Z,14.78
2019-05-18T06:24:47.409Z,15.18
2019-05-18T06:26:51.013Z,13.83
2019-05-18T06:28:54.845Z,15.38
2019-05-18T06:30:58.581Z,15.90
2019-05-18T06:33:02.286Z,16.17
2019-05-18T06:35:06.391Z,17.92
2019-05-18T06:37:11.693Z,16.87
2019-05-18T06:39:15.602Z,16.45
2019-05-18T06:41:19.147Z,15.80
2019-05-18T06:43:23.209Z,17.75
2019-05-18T06:45:27.482Z,15.95
2019-05-18T06:47:31.181Z,18.87
2019-05-18T06:49:35.057Z,17.90
2019-05-18T06:51:38.864Z,15.78
2019-05-18T06:53:42.833Z,16.87
2019-05-18T06:55:47.050Z,16.73
2019-05-18T06:57:51.633Z,17.30
2019-05-18T06:59:56.700Z,16.62
2019-05-18T07:02:00.705Z,15.93
2019-05-18T07:04:04.917Z,16.82
2019-05-18T07:06:08.719Z,16.73
2019-05-18T07:08:12.260Z,15.55
2019-05-18T07:10:15.801Z,14.15
2019-05-18T07:12:19.424Z,14.43
2019-05-18T07:14:25.794Z,14.00
2019-05-18T07:16:28.317Z,14.25
2019-05-18T07:18:32.173Z,15.43
2019-05-18T07:20:35.973Z,15.00
2019-05-18T07:22:40.071Z,17.27
2019-05-18T07:24:43.966Z,16.65
2019-05-18T07:26:47.505Z,17.17
2019-05-18T07:28:51.153Z,15.98
2019-05-18T07:30:54.697Z,15.63
2019-05-18T07:32:58.244Z,15.65
2019-05-18T07:35:02.119Z,15.45
2019-05-18T07:37:05.797Z,15.55
2019-05-18T07:39:09.690Z,16.45
2019-05-18T07:41:13.240Z,15.40
2019-05-18T07:43:16.772Z,15.23
2019-05-18T07:45:20.658Z,16.42
2019-05-18T07:47:24.324Z,13.90
2019-05-18T07:49:27.861Z,12.90
2019-05-18T07:51:36.981Z,13.10
2019-05-18T07:53:36.720Z,14.53
2019-05-18T07:55:40.395Z,15.48
2019-05-18T07:57:44.289Z,16.75
2019-05-18T07:59:48.509Z,16.37
2019-05-18T08:01:52.510Z,16.05
2019-05-18T08:03:56.111Z,17.37
2019-05-18T08:05:59.658Z,16.90
2019-05-18T08:08:03.201Z,16.40
2019-05-18T08:10:07.585Z,17.62
2019-05-18T08:12:11.459Z,17.42
2019-05-18T08:14:15.069Z,18.02
2019-05-18T08:16:18.849Z,19.23
2019-05-18T08:18:22.456Z,17.85
2019-05-18T08:20:26.002Z,19.07
2019-05-18T08:22:29.545Z,17.42
2019-05-18T08:24:34.022Z,16.95
2019-05-18T08:26:37.545Z,16.85
2019-05-18T08:28:41.325Z,14.47
2019-05-18T08:30:44.937Z,14.70
2019-05-18T08:32:49.371Z,15.80
2019-05-18T08:34:53.017Z,14.25
2019-05-18T08:36:57.346Z,14.07
2019-05-18T08:39:01.263Z,12.88
2019-05-18T08:41:06.701Z,11.28
2019-05-18T08:43:10.319Z,11.63
2019-05-18T08:45:14.867Z,11.75
2019-05-18T08:47:18.739Z,11.35
2019-05-18T08:49:22.629Z,11.20
2019-05-18T08:51:26.258Z,10.50
2019-05-18T08:53:30.237Z,10.50
2019-05-18T08:55:33.785Z,9.35
2019-05-18T08:57:37.257Z,10.60
2019-05-18T08:59:40.799Z,10.40
2019-05-18T09:01:44.450Z,7.97
2019-05-18T09:03:48.351Z,8.10
2019-05-18T09:05:51.961Z,7.60
2019-05-18T09:07:55.831Z,8.40
2019-05-18T09:09:59.749Z,8.00
2019-05-18T09:12:03.220Z,8.43
2019-05-18T09:14:07.229Z,6.35
2019-05-18T09:16:10.697Z,6.70
2019-05-18T09:18:14.169Z,6.65
2019-05-18T09:20:18.455Z,6.78
2019-05-18T09:22:23.449Z,7.03
2019-05-18T09:24:27.366Z,6.25
2019-05-18T09:26:30.954Z,7.12
2019-05-18T09:28:34.771Z,7.20
2019-05-18T09:30:41.183Z,7.72
2019-05-18T09:32:43.933Z,6.60
2019-05-18T09:34:47.738Z,6.80
2019-05-18T09:36:51.517Z,7.10
2019-05-18T09:38:55.157Z,7.12
2019-05-18T09:40:58.737Z,8.48
2019-05-18T09:43:02.277Z,9.53
2019-05-18T09:45:06.908Z,15.40
2019-05-18T09:47:10.605Z,11.28
2019-05-18T09:49:14.145Z,7.53
2019-05-18T09:51:17.750Z,6.10
2019-05-18T09:53:21.548Z,6.95
2019-05-18T09:55:26.117Z,6.70
2019-05-18T09:57:29.945Z,6.72
2019-05-18T09:59:33.529Z,6.92
2019-05-18T10:01:37.350Z,8.10
2019-05-18T10:03:41.038Z,6.85
2019-05-18T10:05:44.909Z,7.08
2019-05-18T10:07:48.460Z,6.85
2019-05-18T10:09:52.377Z,6.80
2019-05-18T10:11:55.995Z,6.45
2019-05-18T10:14:00.201Z,7.00
2019-05-18T10:16:04.070Z,6.67
2019-05-18T10:18:07.701Z,6.45
2019-05-18T10:20:11.905Z,7.12
2019-05-18T10:22:15.785Z,6.40
2019-05-18T10:24:19.321Z,6.35
2019-05-18T10:26:22.853Z,5.83
2019-05-18T10:28:26.328Z,5.87
2019-05-18T10:30:30.009Z,6.42
2019-05-18T10:32:33.493Z,5.85
2019-05-18T10:34:36.958Z,5.60
2019-05-18T10:36:40.529Z,5.87
2019-05-18T10:38:44.398Z,6.05
2019-05-18T10:40:47.937Z,6.17
2019-05-18T10:42:51.557Z,5.17
2019-05-18T10:44:55.029Z,5.40
2019-05-18T10:46:58.713Z,6.60
2019-05-18T10:49:02.174Z,5.92
2019-05-18T10:51:05.864Z,5.10
2019-05-18T10:53:09.853Z,5.70
2019-05-18T10:55:13.785Z,5.47
2019-05-18T10:57:17.269Z,4.75
2019-05-18T10:59:20.786Z,4.95
2019-05-18T11:01:24.505Z,4.65
2019-05-18T11:03:28.129Z,5.87
2019-05-18T11:05:34.560Z,5.75
2019-05-18T11:07:38.242Z,4.37
2019-05-18T11:09:42.138Z,4.90
2019-05-18T11:11:46.017Z,4.35
2019-05-18T11:13:50.248Z,4.72
2019-05-18T11:15:53.761Z,4.53
2019-05-18T11:17:57.301Z,4.62
2019-05-18T11:20:00.857Z,4.05
2019-05-18T11:22:04.540Z,4.90
2019-05-18T11:24:08.150Z,7.42
2019-05-18T11:26:12.150Z,4.92
2019-05-18T11:28:15.681Z,4.50
2019-05-18T11:30:21.038Z,4.47
2019-05-18T11:32:24.579Z,4.50
2019-05-18T11:34:28.841Z,4.25
2019-05-18T11:36:32.408Z,4.35
2019-05-18T11:38:36.238Z,4.85
2019-05-18T11:40:40.193Z,4.03
2019-05-18T11:42:43.731Z,4.55
2019-05-18T11:44:47.279Z,5.10
2019-05-18T11:46:50.858Z,4.70
2019-05-18T11:48:54.793Z,4.90
2019-05-18T11:50:58.397Z,4.95
2019-05-18T11:53:02.385Z,4.62
2019-05-18T11:55:07.825Z,5.80
2019-05-18T11:57:11.544Z,4.53
2019-05-18T11:59:15.928Z,4.92
2019-05-18T12:01:19.927Z,4.85
2019-05-18T12:03:24.042Z,4.22
2019-05-18T12:05:27.847Z,4.92
2019-05-18T12:07:31.749Z,4.58
2019-05-18T12:09:36.305Z,4.60
2019-05-18T12:11:39.825Z,4.72
2019-05-18T12:13:43.707Z,4.75
2019-05-18T12:15:47.350Z,4.50
2019-05-18T12:17:50.931Z,4.37
2019-05-18T12:19:54.485Z,4.17
2019-05-18T12:21:58.025Z,4.40
2019-05-18T12:24:14.128Z,4.50
2019-05-18T12:26:06.817Z,4.05
2019-05-18T12:28:10.854Z,4.42
2019-05-18T12:30:15.165Z,4.83
2019-05-18T12:32:18.838Z,4.50
2019-05-18T12:34:22.705Z,4.37
2019-05-18T12:36:26.194Z,4.55
2019-05-18T12:38:30.042Z,4.72
2019-05-18T12:40:33.570Z,4.05
2019-05-18T12:42:38.133Z,5.50
2019-05-18T12:44:44.389Z,4.53
2019-05-18T12:46:48.097Z,4.50
2019-05-18T12:48:51.678Z,4.40
2019-05-18T12:50:55.397Z,4.12
2019-05-18T12:52:58.933Z,4.40
2019-05-18T12:55:03.037Z,4.30
2019-05-18T12:57:06.641Z,5.00
2019-05-18T12:59:10.502Z,4.58
2019-05-18T13:01:14.311Z,4.58
2019-05-18T13:03:18.209Z,7.70
2019-05-18T13:05:22.063Z,4.80
2019-05-18T13:07:26.147Z,4.15
2019-05-18T13:09:29.708Z,4.37
2019-05-18T13:11:33.243Z,4.10
2019-05-18T13:13:36.837Z,3.77
2019-05-18T13:15:40.373Z,4.75
2019-05-18T13:17:44.314Z,4.72
2019-05-18T13:19:47.844Z,4.40
2019-05-18T13:21:51.377Z,4.22
2019-05-18T13:23:54.929Z,4.03
2019-05-18T13:25:59.187Z,4.45
2019-05-18T13:28:02.738Z,4.80
2019-05-18T13:30:11.055Z,4.62
2019-05-18T13:32:14.598Z,4.20
2019-05-18T13:34:19.337Z,5.05
2019-05-18T13:36:22.814Z,4.12
2019-05-18T13:38:26.742Z,3.98
2019-05-18T13:40:30.392Z,4.25
2019-05-18T13:42:33.998Z,4.85
2019-05-18T13:44:38.281Z,4.00
2019-05-18T13:46:42.258Z,4.20
2019-05-18T13:48:45.799Z,4.12
2019-05-18T13:50:49.769Z,4.55
2019-05-18T13:52:53.309Z,3.60
2019-05-18T13:55:03.987Z,4.30
2019-05-18T13:57:02.494Z,4.03
2019-05-18T13:59:06.707Z,3.95
2019-05-18T14:01:10.612Z,4.17
2019-05-18T14:03:14.146Z,4.25
2019-05-18T14:05:17.828Z,4.20
2019-05-18T14:07:21.900Z,4.70
2019-05-18T14:09:25.470Z,4.03
2019-05-18T14:11:29.318Z,4.85
2019-05-18T14:13:32.861Z,4.17
2019-05-18T14:15:36.654Z,4.17
2019-05-18T14:17:40.731Z,4.00
2019-05-18T14:19:44.633Z,4.75
2019-05-18T14:21:48.173Z,4.33
2019-05-18T14:23:51.721Z,4.30
2019-05-18T14:25:55.262Z,3.80
2019-05-18T14:27:59.019Z,4.03
2019-05-18T14:30:03.733Z,4.47
2019-05-18T14:32:07.349Z,4.22
2019-05-18T14:34:10.898Z,4.45
2019-05-18T14:36:14.377Z,4.90
2019-05-18T14:38:17.918Z,4.40
2019-05-18T14:40:21.634Z,4.50
2019-05-18T14:42:25.104Z,4.80
2019-05-18T14:44:28.641Z,3.65
2019-05-18T14:46:32.657Z,4.12
2019-05-18T14:48:36.196Z,3.80
2019-05-18T14:50:40.230Z,4.28
2019-05-18T14:52:43.989Z,4.40
2019-05-18T14:54:47.549Z,4.53
2019-05-18T14:56:51.065Z,4.12
2019-05-18T14:58:54.535Z,3.70
2019-05-18T15:00:58.009Z,4.03
2019-05-18T15:03:04.397Z,3.98
2019-05-18T15:05:09.217Z,3.77
2019-05-18T15:07:13.650Z,3.90
2019-05-18T15:09:17.198Z,4.10
2019-05-18T15:11:20.733Z,3.62
2019-05-18T15:13:24.222Z,3.33
2019-05-18T15:15:28.216Z,3.72
2019-05-18T15:17:32.609Z,3.92
2019-05-18T15:19:36.232Z,3.62
2019-05-18T15:21:40.133Z,4.60
2019-05-18T15:23:43.669Z,3.75
2019-05-18T15:25:50.545Z,4.83
2019-05-18T15:27:52.728Z,4.45
2019-05-18T15:29:56.267Z,5.00
2019-05-18T15:31:59.888Z,3.80
2019-05-18T15:34:03.613Z,4.75
2019-05-18T15:36:07.293Z,4.80
2019-05-18T15:38:10.841Z,4.67
2019-05-18T15:40:14.974Z,4.22
2019-05-18T15:42:18.880Z,4.28
2019-05-18T15:44:22.494Z,4.90
2019-05-18T15:46:26.029Z,4.20
2019-05-18T15:48:29.780Z,4.75
2019-05-18T15:50:33.676Z,4.10
2019-05-18T15:52:37.358Z,4.67
2019-05-18T15:54:40.969Z,4.67
2019-05-18T15:56:45.371Z,4.20
2019-05-18T15:58:49.321Z,3.85
2019-05-18T16:00:53.165Z,3.75
2019-05-18T16:02:56.705Z,4.28
2019-05-18T16:05:00.165Z,4.28
2019-05-18T16:07:05.018Z,4.45
2019-05-18T16:09:09.414Z,4.80
2019-05-18T16:11:13.370Z,6.65
2019-05-18T16:13:17.349Z,10.35
2019-05-18T16:15:21.822Z,16.40
2019-05-18T16:17:38.481Z,6.03
2019-05-18T16:19:31.853Z,7.20
2019-05-18T16:21:35.519Z,12.30
2019-05-18T16:23:39.437Z,13.25
2019-05-18T16:25:43.518Z,14.58
2019-05-18T16:27:47.458Z,8.43
2019-05-18T16:29:51.004Z,8.03
2019-05-18T16:31:55.062Z,5.75
2019-05-18T16:33:59.475Z,6.10
2019-05-18T16:36:03.948Z,7.75
2019-05-18T16:38:07.721Z,6.20
2019-05-18T16:40:12.568Z,5.72
2019-05-18T16:42:16.430Z,5.65
2019-05-18T16:44:21.654Z,6.65
2019-05-18T16:46:25.128Z,9.48
2019-05-18T16:48:29.082Z,7.22
2019-05-18T16:50:36.269Z,9.20
2019-05-18T16:52:40.153Z,15.70
2019-05-18T16:54:43.698Z,12.13
2019-05-18T16:56:47.241Z,8.93
2019-05-18T16:58:50.777Z,9.38
2019-05-18T17:00:54.885Z,54.45
2019-05-18T17:02:59.050Z,26.07
2019-05-18T17:05:02.680Z,21.17
2019-05-18T17:07:06.526Z,24.80
2019-05-18T17:09:10.135Z,20.65
2019-05-18T17:11:14.637Z,12.30
2019-05-18T17:13:18.297Z,23.52
2019-05-18T17:15:22.514Z,21.77
2019-05-18T17:17:27.971Z,9.70
2019-05-18T17:19:31.634Z,16.90
2019-05-18T17:21:35.555Z,20.12
2019-05-18T17:23:39.445Z,21.10
2019-05-18T17:25:42.979Z,10.30
2019-05-18T17:27:47.417Z,9.78
2019-05-18T17:29:51.137Z,12.03
2019-05-18T17:31:54.690Z,17.32
2019-05-18T17:33:58.225Z,14.47
2019-05-18T17:36:02.042Z,15.85
2019-05-18T17:38:06.624Z,18.10
2019-05-18T17:40:10.857Z,49.60
2019-05-18T17:42:14.828Z,27.73
2019-05-18T17:44:19.195Z,49.73
2019-05-18T17:46:22.843Z,44.75
2019-05-18T17:48:27.152Z,28.05
2019-05-18T17:50:30.708Z,30.10
2019-05-18T17:52:34.356Z,34.35
2019-05-18T17:54:37.903Z,26.15
2019-05-18T17:56:41.831Z,32.75
2019-05-18T17:58:45.380Z,33.23
2019-05-18T18:00:48.929Z,23.07
2019-05-18T18:02:52.533Z,25.80
2019-05-18T18:04:56.430Z,26.12
2019-05-18T18:07:00.302Z,23.95
2019-05-18T18:09:05.462Z,43.63
2019-05-18T18:11:11.788Z,56.98
2019-05-18T18:13:14.285Z,68.87
2019-05-18T18:15:17.967Z,80.22
2019-05-18T18:17:21.517Z,49.58
2019-05-18T18:19:25.144Z,64.27
2019-05-18T18:21:28.980Z,85.28
2019-05-18T18:23:32.840Z,46.20
2019-05-18T18:25:36.784Z,32.45
2019-05-18T18:27:40.696Z,53.38
2019-05-18T18:29:44.613Z,73.57
2019-05-18T18:31:48.166Z,34.80
2019-05-18T18:33:51.710Z,38.92
2019-05-18T18:35:55.590Z,44.05
2019-05-18T18:37:59.150Z,36.00
2019-05-18T18:40:02.822Z,33.02
2019-05-18T18:42:06.700Z,33.38
2019-05-18T18:44:10.314Z,37.53
2019-05-18T18:46:14.209Z,34.75
2019-05-18T18:48:17.764Z,31.50
2019-05-18T18:50:21.364Z,31.00
2019-05-18T18:52:25.658Z,31.17
2019-05-18T18:54:29.198Z,29.75
2019-05-18T18:56:33.105Z,28.47
2019-05-18T18:58:37.499Z,29.10
2019-05-18T19:00:41.449Z,47.48
2019-05-18T19:02:45.837Z,54.35
2019-05-18T19:04:50.146Z,29.02
2019-05-18T19:06:53.684Z,39.65
2019-05-18T19:08:57.454Z,74.60
2019-05-18T19:11:01.009Z,73.85
2019-05-18T19:13:06.725Z,44.42
2019-05-18T19:15:10.907Z,44.10
2019-05-18T19:17:14.450Z,152.90
2019-05-18T19:19:19.518Z,138.92
2019-05-18T19:21:23.477Z,54.05
2019-05-18T19:23:27.937Z,24.05
2019-05-18T19:25:31.496Z,20.35
2019-05-18T19:27:35.049Z,19.85
2019-05-18T19:29:39.442Z,19.37
2019-05-18T19:31:43.275Z,18.92
2019-05-18T19:33:46.811Z,20.30
2019-05-18T19:35:50.429Z,21.68
2019-05-18T19:37:54.785Z,29.25
2019-05-18T19:39:59.118Z,28.57
2019-05-18T19:42:02.773Z,27.67
2019-05-18T19:44:06.498Z,38.58
2019-05-18T19:46:10.881Z,51.53
2019-05-18T19:48:15.306Z,34.08
2019-05-18T19:50:18.922Z,31.87
2019-05-18T19:52:22.833Z,31.00
2019-05-18T19:54:26.740Z,32.13
2019-05-18T19:56:38.279Z,35.95
2019-05-18T19:58:35.752Z,34.83
2019-05-18T20:00:39.573Z,31.87
2019-05-18T20:02:43.492Z,32.08
2019-05-18T20:05:05.751Z,30.12
2019-05-18T20:06:52.635Z,30.02
2019-05-18T20:08:56.249Z,29.35
2019-05-18T20:11:01.482Z,33.67
2019-05-18T20:13:05.405Z,29.92
2019-05-18T20:15:09.885Z,30.43
2019-05-18T20:17:14.466Z,32.75
2019-05-18T20:19:17.969Z,36.28
2019-05-18T20:21:21.513Z,47.73
2019-05-18T20:23:25.401Z,39.73
2019-05-18T20:25:29.334Z,33.90
2019-05-18T20:27:33.209Z,37.70
2019-05-18T20:29:37.342Z,38.35
2019-05-18T20:31:42.115Z,47.50
2019-05-18T20:33:45.798Z,29.60
2019-05-18T20:35:49.606Z,20.50
2019-05-18T20:37:54.037Z,14.20
2019-05-18T20:39:57.696Z,17.55
2019-05-18T20:42:01.821Z,17.07
2019-05-18T20:44:05.811Z,16.23
2019-05-18T20:46:09.535Z,15.30
2019-05-18T20:48:16.670Z,12.93
2019-05-18T20:50:19.073Z,11.75
2019-05-18T20:52:22.621Z,11.30
2019-05-18T20:54:26.129Z,9.83
2019-05-18T20:56:29.922Z,9.48
2019-05-18T20:58:39.976Z,8.88
2019-05-18T21:00:40.063Z,9.30
2019-05-18T21:02:43.617Z,9.85
2019-05-18T21:04:47.486Z,9.63
2019-05-18T21:06:51.412Z,9.00
2019-05-18T21:08:55.227Z,10.18
2019-05-18T21:10:58.839Z,10.28
2019-05-18T21:13:02.385Z,11.68
2019-05-18T21:15:08.128Z,10.15
2019-05-18T21:17:12.114Z,10.00
2019-05-18T21:19:15.882Z,9.30
2019-05-18T21:21:24.698Z,9.55
2019-05-18T21:23:24.960Z,10.35
2019-05-18T21:25:28.796Z,10.58
2019-05-18T21:27:32.336Z,9.83
2019-05-18T21:29:35.880Z,12.05
2019-05-18T21:31:39.740Z,17.95
2019-05-18T21:33:43.619Z,13.90
2019-05-18T21:35:47.489Z,15.23
2019-05-18T21:37:51.060Z,15.43
2019-05-18T21:39:54.890Z,11.95
2019-05-18T21:41:58.693Z,13.62
2019-05-18T21:44:02.600Z,14.00
2019-05-18T21:46:06.149Z,12.93
2019-05-18T21:48:10.675Z,13.53
2019-05-18T21:50:14.730Z,11.83
2019-05-18T21:52:19.157Z,12.03
2019-05-18T21:54:23.042Z,11.18
2019-05-18T21:56:26.637Z,10.85
2019-05-18T21:58:30.106Z,14.83
2019-05-18T22:00:34.083Z,77.70
2019-05-18T22:02:38.882Z,16.57
2019-05-18T22:04:42.497Z,16.52
2019-05-18T22:06:46.201Z,11.12
2019-05-18T22:08:49.786Z,10.55
2019-05-18T22:10:53.671Z,11.95
2019-05-18T22:12:57.309Z,11.70
2019-05-18T22:15:01.686Z,12.70
2019-05-18T22:17:05.692Z,12.45
2019-05-18T22:19:09.232Z,12.45
2019-05-18T22:21:12.740Z,12.07
2019-05-18T22:23:16.267Z,10.85
2019-05-18T22:25:20.175Z,11.65
2019-05-18T22:27:24.013Z,10.13
2019-05-18T22:29:27.893Z,10.00
2019-05-18T22:31:31.440Z,9.95
2019-05-18T22:33:35.249Z,10.08
2019-05-18T22:35:38.722Z,10.60
2019-05-18T22:37:42.590Z,9.95
2019-05-18T22:39:46.137Z,48.00
2019-05-18T22:41:49.741Z,105.60
2019-05-18T22:43:53.289Z,18.90
2019-05-18T22:45:56.861Z,17.40
2019-05-18T22:48:00.409Z,16.70
2019-05-18T22:50:08.130Z,19.07
2019-05-18T22:52:12.009Z,17.02
2019-05-18T22:54:15.557Z,14.00
2019-05-18T22:56:19.099Z,14.20
2019-05-18T22:58:22.673Z,14.43
2019-05-18T23:00:26.219Z,16.75
2019-05-18T23:02:30.533Z,21.68
2019-05-18T23:04:34.138Z,30.12
2019-05-18T23:06:37.657Z,25.55
2019-05-18T23:08:41.136Z,17.23
2019-05-18T23:10:44.680Z,16.20
2019-05-18T23:12:48.458Z,17.48
2019-05-18T23:14:52.034Z,18.67
2019-05-18T23:16:55.869Z,19.02
2019-05-18T23:18:59.526Z,20.05
2019-05-18T23:21:03.080Z,23.30
2019-05-18T23:23:06.625Z,20.75
2019-05-18T23:25:10.706Z,22.67
2019-05-18T23:27:14.428Z,19.02
2019-05-18T23:29:18.897Z,17.52
2019-05-18T23:31:22.883Z,17.67
2019-05-18T23:33:26.437Z,37.45
2019-05-18T23:35:30.870Z,25.92
2019-05-18T23:37:34.414Z,28.83
2019-05-18T23:39:37.961Z,24.23
2019-05-18T23:41:41.905Z,23.22
2019-05-18T23:43:45.443Z,21.30
2019-05-18T23:45:49.300Z,19.10
2019-05-18T23:47:53.011Z,17.60
2019-05-18T23:49:56.549Z,14.83
2019-05-18T23:52:00.031Z,19.20
2019-05-18T23:54:04.581Z,16.52
2019-05-18T23:56:08.133Z,17.98
2019-05-18T23:58:11.686Z,17.25
